Time;durP1;ratioP1;P1;durP2;ratioP2;P2;SDS_P1;SDS_P2;PMS_P1;PMS_P2;Temp;Humidity;BMP_temperature;BMP_pressure;BME280_temperature;BME280_humidity;BME280_pressure;Samples;Min_cycle;Max_cycle;Signal;HPM_P1;HPM_P2
2023/01/12 00:00:30;;;;;;;15.30;3.90;;;9.20;99.90;;;;;;5105844;28;20209;-79
2023/01/12 00:02:58;;;;;;;10.53;3.47;;;9.20;99.90;;;;;;5111171;28;20170;-78
2023/01/12 00:05:25;;;;;;;14.10;3.20;;;9.20;99.90;;;;;;5106079;28;20208;-79
2023/01/12 00:07:53;;;;;;;18.43;3.70;;;9.20;99.90;;;;;;5105376;28;20201;-79
2023/01/12 00:10:19;;;;;;;13.80;3.80;;;9.20;99.90;;;;;;5104391;28;20196;-78
2023/01/12 00:12:46;;;;;;;17.43;3.30;;;9.10;99.90;;;;;;5105120;28;20212;-80
2023/01/12 00:15:14;;;;;;;15.80;3.50;;;9.20;99.90;;;;;;5112290;28;20176;-79
2023/01/12 00:17:41;;;;;;;12.13;3.40;;;9.10;99.90;;;;;;5113719;28;20239;-78
2023/01/12 00:20:17;;;;;;;17.50;3.37;;;9.10;99.90;;;;;;5096695;28;20266;-78
2023/01/12 00:22:50;;;;;;;14.87;3.53;;;9.20;99.90;;;;;;5103998;28;20181;-79
2023/01/12 00:25:18;;;;;;;18.97;3.53;;;9.10;99.90;;;;;;5094284;28;20225;-78
2023/01/12 00:27:44;;;;;;;16.37;3.67;;;9.10;99.90;;;;;;5106256;28;20196;-78
2023/01/12 00:30:13;;;;;;;15.90;3.67;;;9.10;99.90;;;;;;5095675;28;20192;-79
2023/01/12 00:32:41;;;;;;;15.37;3.43;;;9.10;99.90;;;;;;5099208;28;20193;-78
2023/01/12 00:35:08;;;;;;;16.17;3.33;;;9.10;99.90;;;;;;5099792;28;20197;-78
2023/01/12 00:37:43;;;;;;;13.83;3.07;;;9.10;99.90;;;;;;5106807;28;20240;-79
2023/01/12 00:40:17;;;;;;;15.63;3.13;;;9.10;99.90;;;;;;5109854;28;20200;-78
2023/01/12 00:45:36;;;;;;;16.03;3.80;;;9.10;99.90;;;;;;5113970;28;20678;-78
2023/01/12 00:48:03;;;;;;;15.53;3.03;;;9.20;99.90;;;;;;5117716;28;20180;-79
2023/01/12 00:50:30;;;;;;;13.70;3.27;;;9.20;99.90;;;;;;5114993;28;20208;-79
2023/01/12 00:53:02;;;;;;;15.70;3.47;;;9.20;99.90;;;;;;5116301;28;20185;-78
2023/01/12 00:55:32;;;;;;;12.70;3.20;;;9.20;99.90;;;;;;5116249;28;20185;-79
2023/01/12 00:57:59;;;;;;;11.73;3.30;;;9.20;99.90;;;;;;5115472;28;20652;-78
2023/01/12 01:00:26;;;;;;;21.07;3.60;;;9.20;99.90;;;;;;5109391;28;20216;-79
2023/01/12 01:02:52;;;;;;;18.47;3.43;;;9.30;99.90;;;;;;5109139;28;20185;-78
2023/01/12 01:05:19;;;;;;;19.83;3.57;;;9.20;99.90;;;;;;5109376;28;20220;-79
2023/01/12 01:07:46;;;;;;;17.93;3.40;;;9.30;99.90;;;;;;5107162;28;20201;-78
2023/01/12 01:10:15;;;;;;;16.33;3.27;;;9.20;99.90;;;;;;5108101;28;20176;-78
2023/01/12 01:12:42;;;;;;;18.33;3.83;;;9.20;99.90;;;;;;5109557;28;20185;-79
2023/01/12 01:15:10;;;;;;;15.00;2.80;;;9.30;99.90;;;;;;5108573;28;20183;-79
2023/01/12 01:17:37;;;;;;;21.20;3.93;;;9.30;99.90;;;;;;5109955;28;20224;-79
2023/01/12 01:20:04;;;;;;;20.97;3.67;;;9.20;99.90;;;;;;5111121;28;20209;-79
2023/01/12 01:22:31;;;;;;;13.57;2.93;;;9.20;99.90;;;;;;5107952;28;20207;-79
2023/01/12 01:24:58;;;;;;;17.30;3.77;;;9.20;99.90;;;;;;5106460;28;20260;-78
2023/01/12 01:27:39;;;;;;;17.50;3.57;;;9.20;99.90;;;;;;5108315;28;20592;-78
2023/01/12 01:30:12;;;;;;;11.40;3.17;;;9.20;99.90;;;;;;5114972;28;20212;-79
2023/01/12 01:32:39;;;;;;;16.33;2.70;;;9.20;99.90;;;;;;5120706;28;20183;-79
2023/01/12 01:35:08;;;;;;;14.80;3.50;;;9.30;99.90;;;;;;5116763;28;20236;-79
2023/01/12 01:37:35;;;;;;;14.77;3.37;;;9.20;99.90;;;;;;5114629;28;20233;-79
2023/01/12 01:40:04;;;;;;;18.03;3.33;;;9.10;99.90;;;;;;5113547;28;20174;-79
2023/01/12 01:42:31;;;;;;;17.07;2.83;;;9.10;99.90;;;;;;5113260;28;20233;-78
2023/01/12 01:45:03;;;;;;;12.83;3.10;;;9.10;99.90;;;;;;5106697;28;20233;-78
2023/01/12 01:47:34;;;;;;;12.93;2.77;;;9.10;99.90;;;;;;5106767;28;20180;-79
2023/01/12 01:50:04;;;;;;;20.90;3.47;;;9.10;99.90;;;;;;5105317;28;20652;-78
2023/01/12 01:52:36;;;;;;;8.07;2.73;;;9.20;99.90;;;;;;5106331;28;20678;-78
2023/01/12 01:55:11;;;;;;;21.00;3.17;;;9.20;99.90;;;;;;5103448;28;20284;-79
2023/01/12 01:57:42;;;;;;;13.97;3.20;;;9.20;99.90;;;;;;5104414;28;20644;-79
2023/01/12 02:00:37;;;;;;;14.60;2.70;;;9.20;99.90;;;;;;5102718;28;20207;-79
2023/01/12 02:03:06;;;;;;;11.67;2.83;;;9.20;99.90;;;;;;5105528;28;20205;-79
2023/01/12 02:05:33;;;;;;;16.33;3.00;;;9.30;99.90;;;;;;5103887;28;20235;-78
2023/01/12 02:08:06;;;;;;;18.27;3.20;;;9.20;99.90;;;;;;5106629;28;20205;-79
2023/01/12 02:10:39;;;;;;;11.93;3.10;;;9.10;99.90;;;;;;5103969;28;20213;-79
2023/01/12 02:16:21;;;;;;;19.87;3.20;;;9.40;99.90;;;;;;5115950;28;20169;-78
2023/01/12 02:19:04;;;;;;;20.23;3.43;;;9.20;99.90;;;;;;5110212;28;20567;-79
2023/01/12 02:22:26;;;;;;;19.33;4.20;;;9.20;99.90;;;;;;5109366;28;20650;-79
2023/01/12 02:25:43;;;;;;;14.53;3.70;;;9.20;99.90;;;;;;5112889;28;20209;-78
2023/01/12 02:28:48;;;;;;;14.00;2.70;;;9.20;99.90;;;;;;5103212;28;20205;-78
2023/01/12 02:31:38;;;;;;;17.27;3.70;;;9.20;99.90;;;;;;5104164;28;20208;-79
2023/01/12 02:34:15;;;;;;;11.40;3.07;;;9.10;99.90;;;;;;5105784;28;20232;-79
2023/01/12 02:36:50;;;;;;;20.63;2.93;;;9.20;99.90;;;;;;5103788;28;20204;-79
2023/01/12 02:39:24;;;;;;;15.43;3.40;;;9.30;99.90;;;;;;5102841;28;20286;-79
2023/01/12 02:45:05;;;;;;;9.20;2.27;;;9.30;99.90;;;;;;5107482;28;20200;-78
2023/01/12 02:47:39;;;;;;;15.17;3.27;;;9.30;99.90;;;;;;5108642;28;20185;-78
2023/01/12 02:50:14;;;;;;;13.27;2.80;;;9.40;99.90;;;;;;5109969;28;20200;-79
2023/01/12 02:52:48;;;;;;;14.60;2.80;;;9.30;99.90;;;;;;5111996;28;20180;-79
2023/01/12 02:55:17;;;;;;;19.87;3.57;;;9.40;99.90;;;;;;5108319;28;20189;-79
2023/01/12 03:00:27;;;;;;;15.80;3.60;;;9.30;99.90;;;;;;5106746;28;20223;-78
2023/01/12 03:02:55;;;;;;;19.37;3.23;;;9.30;99.90;;;;;;5104045;28;20204;-79
2023/01/12 03:05:22;;;;;;;17.77;3.00;;;9.30;99.90;;;;;;5102838;28;20219;-79
2023/01/12 03:07:54;;;;;;;13.63;3.07;;;9.30;99.90;;;;;;5102303;28;20236;-78
2023/01/12 03:10:43;;;;;;;19.90;3.07;;;9.30;99.90;;;;;;5103437;28;20185;-78
2023/01/12 03:13:14;;;;;;;17.83;3.30;;;9.40;99.90;;;;;;5102815;28;20201;-79
2023/01/12 03:15:46;;;;;;;19.53;2.70;;;9.40;99.90;;;;;;5102624;28;20201;-79
2023/01/12 03:18:16;;;;;;;13.97;4.00;;;9.40;99.90;;;;;;5102677;28;20251;-79
2023/01/12 03:20:48;;;;;;;18.43;3.53;;;9.40;99.90;;;;;;5103468;28;20197;-79
2023/01/12 03:23:22;;;;;;;18.13;3.70;;;9.30;99.90;;;;;;5104490;28;20322;-79
2023/01/12 03:25:56;;;;;;;17.10;3.40;;;9.50;99.90;;;;;;5102613;28;20217;-79
2023/01/12 03:28:42;;;;;;;17.93;3.67;;;9.40;99.90;;;;;;5105402;28;20230;-78
2023/01/12 03:31:12;;;;;;;18.47;3.23;;;9.40;99.90;;;;;;5113641;28;20177;-78
2023/01/12 03:33:42;;;;;;;15.57;3.50;;;9.40;99.90;;;;;;5111233;28;20215;-79
2023/01/12 03:36:20;;;;;;;21.07;3.13;;;9.40;99.90;;;;;;5104759;28;20610;-78
2023/01/12 03:39:06;;;;;;;17.33;3.67;;;9.40;99.90;;;;;;5106332;28;20245;-79
2023/01/12 03:42:08;;;;;;;21.42;4.50;;;9.40;99.90;;;;;;5110629;28;20409;-79
2023/01/12 03:44:42;;;;;;;19.37;3.50;;;9.40;99.90;;;;;;5108473;28;20195;-79
2023/01/12 03:47:18;;;;;;;25.83;4.00;;;9.40;99.90;;;;;;5108119;28;20210;-78
2023/01/12 03:50:01;;;;;;;18.37;3.40;;;9.40;99.90;;;;;;5106757;28;20201;-78
2023/01/12 03:52:31;;;;;;;14.57;3.03;;;9.50;99.90;;;;;;5104409;28;20266;-79
2023/01/12 03:55:07;;;;;;;26.27;4.20;;;9.40;99.90;;;;;;5102893;28;20551;-79
2023/01/12 03:57:54;;;;;;;17.43;4.17;;;9.40;99.90;;;;;;5104776;28;20202;-79
2023/01/12 04:00:23;;;;;;;11.97;2.97;;;9.40;99.90;;;;;;5102461;28;20193;-79
2023/01/12 04:03:11;;;;;;;16.00;2.60;;;9.30;99.90;;;;;;5092094;28;20229;-78
2023/01/12 04:05:51;;;;;;;20.13;3.53;;;9.30;99.90;;;;;;5087834;28;20229;-79
2023/01/12 04:08:18;;;;;;;19.00;4.97;;;9.40;99.90;;;;;;5101373;28;20197;-78
2023/01/12 04:10:45;;;;;;;12.90;2.73;;;9.30;99.90;;;;;;5099768;28;20213;-79
2023/01/12 04:13:14;;;;;;;14.17;2.73;;;9.40;99.90;;;;;;5101892;28;20219;-79
2023/01/12 04:19:03;;;;;;;19.07;3.50;;;9.40;99.90;;;;;;5111873;28;20195;-77
2023/01/12 04:24:13;;;;;;;16.50;2.63;;;9.40;99.90;;;;;;5060118;28;20181;-78
2023/01/12 04:26:39;;;;;;;16.17;3.40;;;9.40;99.90;;;;;;5109192;28;20219;-78
2023/01/12 04:29:12;;;;;;;12.17;2.60;;;9.30;99.90;;;;;;5116261;28;20480;-79
2023/01/12 04:31:40;;;;;;;17.63;2.97;;;9.30;99.90;;;;;;5109969;28;20232;-79
2023/01/12 04:34:08;;;;;;;12.00;3.60;;;9.40;99.90;;;;;;5105444;28;20581;-79
2023/01/12 04:36:36;;;;;;;15.90;2.73;;;9.30;99.90;;;;;;5111230;28;20177;-79
2023/01/12 04:39:03;;;;;;;14.43;2.90;;;9.30;99.90;;;;;;5109726;28;20193;-79
2023/01/12 04:41:33;;;;;;;9.03;1.90;;;9.30;99.90;;;;;;5111317;28;20205;-78
2023/01/12 04:43:59;;;;;;;10.20;2.60;;;9.30;99.90;;;;;;5110766;28;20196;-78
2023/01/12 04:46:34;;;;;;;14.13;2.80;;;9.40;99.90;;;;;;5109995;28;20200;-78
2023/01/12 04:49:01;;;;;;;15.10;3.23;;;9.40;99.90;;;;;;5114349;28;20188;-78
2023/01/12 04:51:27;;;;;;;12.50;2.80;;;9.40;99.90;;;;;;5115186;28;20185;-77
2023/01/12 04:53:56;;;;;;;9.67;2.90;;;9.40;99.90;;;;;;5113841;28;20199;-78
2023/01/12 04:56:37;;;;;;;13.03;2.73;;;9.40;99.90;;;;;;5113769;28;20185;-79
2023/01/12 04:59:11;;;;;;;13.23;3.17;;;9.40;99.90;;;;;;5101729;28;20220;-79
2023/01/12 05:01:38;;;;;;;13.43;2.87;;;9.40;99.90;;;;;;5075162;28;20202;-78
2023/01/12 05:04:05;;;;;;;15.50;3.30;;;9.50;99.90;;;;;;5086626;28;20204;-78
2023/01/12 05:06:32;;;;;;;15.20;2.90;;;9.60;99.90;;;;;;5083807;28;20258;-78
2023/01/12 05:11:47;;;;;;;15.60;3.43;;;9.60;99.90;;;;;;5105932;28;20264;-79
2023/01/12 05:14:14;;;;;;;21.45;4.18;;;9.50;99.90;;;;;;5102290;28;20403;-79
2023/01/12 05:16:40;;;;;;;12.40;2.93;;;9.50;99.90;;;;;;5090127;28;20240;-78
2023/01/12 05:19:13;;;;;;;14.10;3.03;;;9.50;99.90;;;;;;5099640;28;20210;-79
2023/01/12 05:21:42;;;;;;;13.80;2.80;;;9.50;99.90;;;;;;5095898;28;20193;-79
2023/01/12 05:24:13;;;;;;;12.87;2.43;;;9.50;99.90;;;;;;5087466;28;20205;-79
2023/01/12 05:26:43;;;;;;;6.60;2.73;;;9.60;99.90;;;;;;5101355;28;20228;-78
2023/01/12 05:29:20;;;;;;;12.27;3.10;;;9.50;99.90;;;;;;5108695;28;20201;-78
2023/01/12 05:31:47;;;;;;;10.77;3.20;;;9.60;99.90;;;;;;5108930;28;20236;-78
2023/01/12 05:34:18;;;;;;;10.67;3.20;;;9.60;99.90;;;;;;5089578;28;20182;-79
2023/01/12 05:37:05;;;;;;;14.77;3.87;;;9.50;99.90;;;;;;5102865;28;20192;-79
2023/01/12 05:39:33;;;;;;;11.80;2.70;;;9.60;99.90;;;;;;5111407;28;20261;-78
2023/01/12 05:44:44;;;;;;;17.13;4.73;;;9.60;99.90;;;;;;5063897;28;20517;-79
2023/01/12 05:47:11;;;;;;;10.83;3.00;;;9.60;99.90;;;;;;5097997;28;20216;-79
2023/01/12 05:49:38;;;;;;;11.93;2.73;;;9.60;99.90;;;;;;5107209;28;20196;-79
2023/01/12 05:52:11;;;;;;;11.77;2.97;;;9.60;99.90;;;;;;5087774;28;20661;-78
2023/01/12 05:54:39;;;;;;;7.40;2.40;;;9.50;99.90;;;;;;5104719;28;20201;-78
2023/01/12 05:57:08;;;;;;;12.33;2.63;;;9.50;99.90;;;;;;5108417;28;20201;-79
2023/01/12 05:59:51;;;;;;;9.30;2.57;;;9.50;99.90;;;;;;5107874;28;20182;-79
2023/01/12 06:02:20;;;;;;;10.20;2.70;;;9.50;99.90;;;;;;5112646;28;20637;-79
2023/01/12 06:04:54;;;;;;;14.43;2.20;;;9.50;99.90;;;;;;5112900;28;20274;-79
2023/01/12 06:07:21;;;;;;;18.33;2.97;;;9.50;99.90;;;;;;5114170;28;20737;-79
2023/01/12 06:09:52;;;;;;;12.40;3.13;;;9.50;99.90;;;;;;5115038;28;20173;-78
2023/01/12 06:15:05;;;;;;;15.60;3.00;;;9.50;99.90;;;;;;5101884;28;20236;-79
2023/01/12 06:17:32;;;;;;;14.10;3.00;;;9.50;99.90;;;;;;5087563;28;20236;-79
2023/01/12 06:19:59;;;;;;;11.73;3.10;;;9.50;99.90;;;;;;5094562;28;20208;-79
2023/01/12 06:22:28;;;;;;;10.77;2.93;;;9.60;99.90;;;;;;5089949;28;20201;-79
2023/01/12 06:24:56;;;;;;;10.80;2.90;;;9.60;99.90;;;;;;5094035;28;20201;-79
2023/01/12 06:27:23;;;;;;;12.00;3.13;;;9.60;99.90;;;;;;5086840;28;20599;-79
2023/01/12 06:29:58;;;;;;;11.50;2.90;;;9.60;99.90;;;;;;5094022;28;20202;-79
2023/01/12 06:32:27;;;;;;;13.50;2.80;;;9.60;99.90;;;;;;5102295;28;20253;-79
2023/01/12 06:34:57;;;;;;;8.43;3.27;;;9.60;99.90;;;;;;5105620;28;20208;-79
2023/01/12 06:37:25;;;;;;;12.10;2.97;;;9.70;99.90;;;;;;5099185;28;20216;-79
2023/01/12 06:39:52;;;;;;;13.50;3.07;;;9.60;99.90;;;;;;5101913;28;20205;-79
2023/01/12 06:42:28;;;;;;;8.60;2.70;;;9.70;99.90;;;;;;5104677;28;20414;-79
2023/01/12 06:45:02;;;;;;;11.83;2.87;;;9.60;99.90;;;;;;5105205;28;20254;-79
2023/01/12 06:50:19;;;;;;;10.27;3.03;;;9.60;99.90;;;;;;5100538;28;20212;-79
2023/01/12 06:52:49;;;;;;;12.70;3.00;;;9.70;99.90;;;;;;5104357;28;20266;-79
2023/01/12 06:55:24;;;;;;;8.30;2.63;;;9.70;99.90;;;;;;5105428;28;20180;-79
2023/01/12 06:57:52;;;;;;;8.23;2.80;;;9.70;99.90;;;;;;5106548;28;20259;-78
2023/01/12 07:00:23;;;;;;;9.73;2.50;;;9.70;99.90;;;;;;5105321;28;20196;-79
2023/01/12 07:02:52;;;;;;;11.70;3.17;;;9.60;99.90;;;;;;5101364;28;20196;-79
2023/01/12 07:05:19;;;;;;;9.97;3.00;;;9.60;99.90;;;;;;5089445;28;20208;-78
2023/01/12 07:07:46;;;;;;;10.23;2.77;;;9.70;99.90;;;;;;5103195;28;20236;-79
2023/01/12 07:10:14;;;;;;;10.47;2.87;;;9.70;99.90;;;;;;5100969;28;20197;-78
2023/01/12 07:12:41;;;;;;;7.47;2.33;;;9.70;99.90;;;;;;5103279;28;20190;-79
2023/01/12 07:15:15;;;;;;;11.77;3.70;;;9.70;99.90;;;;;;5105979;28;20204;-78
2023/01/12 07:17:42;;;;;;;13.43;3.57;;;9.80;99.90;;;;;;5107577;28;20304;-79
2023/01/12 07:20:11;;;;;;;6.80;2.47;;;9.70;99.90;;;;;;5103464;28;20209;-78
2023/01/12 07:22:38;;;;;;;11.30;3.40;;;9.70;99.90;;;;;;5102724;28;20198;-78
2023/01/12 07:25:05;;;;;;;14.13;3.67;;;9.70;99.90;;;;;;5100390;28;20267;-78
2023/01/12 07:27:32;;;;;;;7.67;3.27;;;9.80;99.90;;;;;;5099253;28;20224;-79
2023/01/12 07:29:59;;;;;;;9.40;3.27;;;9.80;99.90;;;;;;5089687;28;20197;-79
2023/01/12 07:32:28;;;;;;;7.83;2.90;;;9.80;99.90;;;;;;5109140;28;20205;-78
2023/01/12 07:34:55;;;;;;;13.30;3.17;;;9.90;99.90;;;;;;5111167;28;20228;-77
2023/01/12 07:37:22;;;;;;;7.60;3.37;;;9.90;99.90;;;;;;5110406;28;20256;-78
2023/01/12 07:39:49;;;;;;;10.10;3.00;;;9.90;99.90;;;;;;5114457;28;20181;-79
2023/01/12 07:42:25;;;;;;;7.43;2.67;;;9.90;99.90;;;;;;5111510;28;20187;-79
2023/01/12 07:44:57;;;;;;;10.00;3.40;;;9.90;99.90;;;;;;5113960;28;20193;-79
2023/01/12 07:47:26;;;;;;;10.00;4.32;;;9.90;99.90;;;;;;5095607;28;20439;-79
2023/01/12 07:49:57;;;;;;;8.73;2.90;;;10.00;99.90;;;;;;5110552;28;20224;-79
2023/01/12 07:52:24;;;;;;;8.73;2.97;;;10.00;99.90;;;;;;5105555;28;20206;-79
2023/01/12 07:54:51;;;;;;;11.17;2.87;;;10.00;99.90;;;;;;5066165;28;20653;-79
2023/01/12 07:57:23;;;;;;;7.77;2.90;;;10.00;99.90;;;;;;5100864;28;20201;-79
2023/01/12 07:59:53;;;;;;;12.33;3.23;;;10.00;99.90;;;;;;5110345;28;20184;-79
2023/01/12 08:02:23;;;;;;;6.00;2.80;;;10.00;99.90;;;;;;5106658;28;20195;-79
2023/01/12 08:07:33;;;;;;;6.27;2.57;;;10.00;99.90;;;;;;5100547;28;20213;-78
2023/01/12 08:10:00;;;;;;;10.23;3.60;;;10.00;99.90;;;;;;5105537;28;20189;-80
2023/01/12 08:12:31;;;;;;;5.50;3.37;;;10.00;99.90;;;;;;5106396;28;20220;-81
2023/01/12 08:14:59;;;;;;;7.67;3.03;;;10.10;99.90;;;;;;5096320;28;20624;-81
2023/01/12 08:17:40;;;;;;;10.67;3.70;;;10.10;99.90;;;;;;5081762;28;20222;-80
2023/01/12 08:20:16;;;;;;;6.30;2.93;;;10.00;99.90;;;;;;5076728;28;20236;-79
2023/01/12 08:22:50;;;;;;;8.13;3.10;;;10.00;99.90;;;;;;5073664;28;20204;-79
2023/01/12 08:25:25;;;;;;;10.93;3.90;;;10.20;99.90;;;;;;5092539;28;20306;-79
2023/01/12 08:27:59;;;;;;;8.30;3.60;;;10.00;99.90;;;;;;5100298;28;20239;-79
2023/01/12 08:30:29;;;;;;;12.70;4.03;;;10.10;99.90;;;;;;5089173;28;20272;-78
2023/01/12 08:32:59;;;;;;;5.60;3.70;;;10.10;99.90;;;;;;5100738;28;20185;-79
2023/01/12 08:35:28;;;;;;;7.23;3.60;;;10.20;99.90;;;;;;5099072;28;20186;-78
2023/01/12 08:37:57;;;;;;;7.90;4.00;;;10.20;99.90;;;;;;5099870;28;20201;-79
2023/01/12 08:41:31;;;;;;;7.03;3.93;;;10.20;99.90;;;;;;5082749;28;20189;-78
2023/01/12 08:44:00;;;;;;;3.93;3.30;;;10.20;99.90;;;;;;5103605;28;20205;-79
2023/01/12 08:46:06;;;;;;;7.53;4.03;;;10.20;99.90;;;;;;5101485;28;20208;-79
2023/01/12 08:48:33;;;;;;;8.60;4.20;;;10.20;99.90;;;;;;5111172;28;20232;-79
2023/01/12 08:51:00;;;;;;;5.87;3.70;;;10.30;99.90;;;;;;5118444;28;20174;-79
2023/01/12 08:53:34;;;;;;;5.87;3.50;;;10.20;99.90;;;;;;5117524;28;20169;-79
2023/01/12 08:56:03;;;;;;;3.93;3.03;;;10.30;99.90;;;;;;5118704;28;20169;-79
2023/01/12 08:58:45;;;;;;;6.60;3.37;;;10.20;99.90;;;;;;5114549;28;20215;-78
2023/01/12 09:01:20;;;;;;;5.90;3.50;;;10.30;99.90;;;;;;5115758;28;20217;-78
2023/01/12 09:03:48;;;;;;;5.83;3.40;;;10.10;99.90;;;;;;5108152;28;20670;-78
2023/01/12 09:06:18;;;;;;;9.07;3.10;;;10.30;99.90;;;;;;5106810;28;20218;-79
2023/01/12 09:08:47;;;;;;;7.57;2.63;;;10.20;99.90;;;;;;5106328;28;20261;-79
2023/01/12 09:11:17;;;;;;;4.90;2.83;;;10.20;99.90;;;;;;5107462;28;20189;-79
2023/01/12 09:13:43;;;;;;;4.27;2.73;;;10.30;99.90;;;;;;5106559;28;20193;-79
2023/01/12 09:16:14;;;;;;;5.20;2.50;;;10.30;99.90;;;;;;5109446;28;20201;-78
2023/01/12 09:18:42;;;;;;;5.00;2.60;;;10.30;99.90;;;;;;5087297;28;20209;-78
2023/01/12 09:21:10;;;;;;;2.87;2.20;;;10.30;99.90;;;;;;5105193;28;20187;-78
2023/01/12 09:23:37;;;;;;;3.20;1.87;;;10.30;99.90;;;;;;5095597;28;20204;-79
2023/01/12 09:26:08;;;;;;;6.03;2.60;;;10.30;99.90;;;;;;5106660;28;20208;-79
2023/01/12 09:28:35;;;;;;;3.10;2.00;;;10.30;99.90;;;;;;5102988;28;20225;-79
2023/01/12 09:31:10;;;;;;;4.27;2.30;;;10.40;99.90;;;;;;5104603;28;20567;-79
2023/01/12 09:34:00;;;;;;;5.17;2.20;;;10.40;99.90;;;;;;5105276;28;20283;-78
2023/01/12 09:36:36;;;;;;;4.40;2.87;;;10.40;99.90;;;;;;5115040;28;20182;-79
2023/01/12 09:39:18;;;;;;;3.20;2.50;;;10.40;99.90;;;;;;5115036;28;20184;-78
2023/01/12 09:47:47;;;;;;;7.07;2.83;;;10.40;99.90;;;;;;5107707;28;20208;-78
2023/01/12 09:50:19;;;;;;;6.83;2.97;;;10.30;99.90;;;;;;5095497;28;20197;-79
2023/01/12 09:52:57;;;;;;;4.17;2.67;;;10.60;99.90;;;;;;5107345;28;20193;-79
2023/01/12 09:55:27;;;;;;;3.77;2.40;;;10.50;99.90;;;;;;5112830;28;20197;-78
2023/01/12 09:58:15;;;;;;;3.13;2.77;;;10.50;99.90;;;;;;5107412;28;20192;-79
2023/01/12 10:00:42;;;;;;;4.43;3.10;;;10.50;99.90;;;;;;5098601;28;20287;-80
2023/01/12 10:03:23;;;;;;;4.77;2.60;;;10.50;99.90;;;;;;5109482;28;20209;-80
2023/01/12 10:05:53;;;;;;;5.07;2.43;;;10.50;99.90;;;;;;5092795;28;20193;-80
2023/01/12 10:08:32;;;;;;;4.43;2.83;;;10.50;99.90;;;;;;5106928;28;20229;-80
2023/01/12 10:11:13;;;;;;;5.67;2.90;;;10.50;99.90;;;;;;5111209;28;20181;-80
2023/01/12 10:14:13;;;;;;;3.90;2.63;;;10.50;99.90;;;;;;5111142;28;20209;-80
2023/01/12 10:17:05;;;;;;;5.17;3.27;;;10.60;99.90;;;;;;5107995;28;20228;-80
2023/01/12 10:19:41;;;;;;;5.90;3.40;;;10.60;99.90;;;;;;5091115;28;20267;-81
2023/01/12 10:22:35;;;;;;;4.70;3.30;;;10.60;99.90;;;;;;5083849;28;20196;-81
2023/01/12 10:25:30;;;;;;;7.20;3.60;;;10.60;99.90;;;;;;5110781;28;20202;-80
2023/01/12 10:28:21;;;;;;;8.87;3.30;;;10.60;99.90;;;;;;5112327;28;20229;-81
2023/01/12 10:34:17;;;;;;;10.23;3.70;;;10.60;99.90;;;;;;5256827;22;20247;-80
2023/01/12 10:37:12;;;;;;;5.80;3.30;;;10.70;99.90;;;;;;5112881;28;20295;-81
2023/01/12 10:39:44;;;;;;;6.43;2.60;;;10.50;99.90;;;;;;5088200;28;20649;-80
2023/01/12 11:09:26;;;;;;;2.93;1.87;;;10.50;99.90;;;;;;5038770;28;20239;-82
2023/01/12 11:15:21;;;;;;;2.83;1.33;;;10.60;99.90;;;;;;5035754;28;20187;-82
2023/01/12 11:25:10;;;;;;;3.83;1.47;;;10.60;99.90;;;;;;5049038;28;20225;-81
2023/01/12 11:27:55;;;;;;;3.13;1.57;;;10.60;99.90;;;;;;5075126;28;20235;-80
2023/01/12 11:33:34;;;;;;;2.77;1.23;;;10.60;99.90;;;;;;5189962;22;20229;-92
2023/01/12 11:36:05;;;;;;;3.60;1.27;;;10.60;99.90;;;;;;5058720;28;20212;-93
2023/01/12 11:38:36;;;;;;;3.23;1.40;;;10.70;99.90;;;;;;5055593;28;20205;-91
2023/01/12 11:41:05;;;;;;;2.93;1.40;;;10.70;99.90;;;;;;5061220;28;20281;-92
2023/01/12 11:43:48;;;;;;;2.00;1.60;;;10.70;99.90;;;;;;5055240;28;20257;-94
2023/01/12 11:46:23;;;;;;;3.40;1.52;;;10.70;99.90;;;;;;5051956;28;20437;-91
2023/01/12 11:49:00;;;;;;;3.47;1.43;;;10.70;99.90;;;;;;5054222;28;20233;-94
2023/01/12 11:51:30;;;;;;;6.47;1.60;;;10.70;99.90;;;;;;5057441;28;20214;-94
2023/01/12 11:53:58;;;;;;;2.03;1.27;;;10.70;99.90;;;;;;5055396;28;20250;-92
2023/01/12 11:56:57;;;;;;;3.37;1.60;;;10.70;99.90;;;;;;5054823;28;20293;-94
2023/01/12 11:59:38;;;;;;;3.00;1.43;;;10.80;99.90;;;;;;5044637;28;20206;-94
2023/01/12 12:02:18;;;;;;;2.03;1.30;;;10.70;99.90;;;;;;5054225;28;20194;-92
2023/01/12 12:04:59;;;;;;;3.37;1.53;;;10.60;99.90;;;;;;5054124;28;20206;-92
2023/01/12 12:07:52;;;;;;;2.33;1.40;;;10.60;99.90;;;;;;5034485;28;20233;-94
2023/01/12 12:10:23;;;;;;;3.10;1.80;;;10.60;99.90;;;;;;5054074;28;20195;-94
2023/01/12 12:13:15;;;;;;;2.50;1.27;;;10.60;99.90;;;;;;5055774;28;20664;-95
2023/01/12 12:15:52;;;;;;;2.40;1.43;;;10.70;99.90;;;;;;5051767;28;20301;-95
2023/01/12 12:18:35;;;;;;;3.43;1.37;;;10.70;99.90;;;;;;5055466;28;20221;-93
2023/01/12 12:21:12;;;;;;;2.23;1.27;;;10.60;99.90;;;;;;5054860;28;20232;-96
2023/01/12 12:23:51;;;;;;;3.77;1.63;;;10.60;99.90;;;;;;5053624;28;20264;-93
2023/01/12 12:26:27;;;;;;;3.63;1.53;;;10.70;99.90;;;;;;5054214;28;20206;-95
2023/01/12 12:29:12;;;;;;;5.87;1.87;;;10.60;99.90;;;;;;5054408;28;20240;-95
2023/01/12 12:32:12;;;;;;;3.63;1.60;;;10.70;99.90;;;;;;5041922;28;20285;-95
2023/01/12 12:34:57;;;;;;;3.53;1.90;;;10.60;99.90;;;;;;5048907;28;20310;-95
2023/01/12 12:37:38;;;;;;;3.70;1.40;;;10.60;99.90;;;;;;5053588;28;20198;-94
2023/01/12 12:40:17;;;;;;;3.50;1.97;;;10.70;99.90;;;;;;5053846;28;20602;-96
2023/01/12 12:45:45;;;;;;;5.83;2.00;;;10.60;99.90;;;;;;5064934;28;20289;-91
2023/01/12 12:48:18;;;;;;;3.50;1.80;;;10.70;99.90;;;;;;5054612;28;20747;-96
2023/01/12 12:50:55;;;;;;;3.27;2.13;;;10.70;99.90;;;;;;5065653;28;20203;-92
2023/01/12 12:53:27;;;;;;;2.13;1.50;;;10.70;99.90;;;;;;5067683;28;20225;-91
2023/01/12 12:55:58;;;;;;;4.23;1.50;;;10.70;99.90;;;;;;5058591;28;20646;-92
2023/01/12 12:58:47;;;;;;;2.60;1.40;;;10.80;99.90;;;;;;5055794;28;20210;-93
2023/01/12 13:01:54;;;;;;;5.60;1.90;;;10.70;99.90;;;;;;5056156;28;20323;-92
2023/01/12 13:04:56;;;;;;;3.47;1.90;;;10.70;99.90;;;;;;5046971;28;20198;-94
2023/01/12 13:07:29;;;;;;;4.25;1.88;;;10.80;99.90;;;;;;5054929;28;20442;-92
2023/01/12 13:10:32;;;;;;;3.90;1.60;;;10.90;99.90;;;;;;5058380;28;20205;-92
2023/01/12 13:13:17;;;;;;;2.63;1.33;;;10.90;99.90;;;;;;5052434;28;20242;-94
2023/01/12 13:15:45;;;;;;;2.07;1.57;;;10.80;99.90;;;;;;5042469;28;20207;-92
2023/01/12 13:18:42;;;;;;;2.13;1.53;;;10.90;99.90;;;;;;5055023;28;20295;-93
2023/01/12 13:21:31;;;;;;;2.60;1.43;;;10.90;99.90;;;;;;5054575;28;20298;-93
2023/01/12 13:24:26;;;;;;;3.27;1.27;;;10.90;99.90;;;;;;5052164;28;20270;-88
2023/01/12 13:26:57;;;;;;;2.03;1.13;;;11.00;99.90;;;;;;5048983;28;20295;-91
2023/01/12 13:29:40;;;;;;;3.93;1.30;;;11.00;99.90;;;;;;5046751;28;20294;-90
2023/01/12 13:32:39;;;;;;;1.63;1.17;;;10.90;99.90;;;;;;5046707;28;20211;-90
2023/01/12 13:35:23;;;;;;;1.53;1.20;;;10.90;99.90;;;;;;5055459;28;20639;-90
2023/01/12 13:37:58;;;;;;;3.83;1.13;;;10.90;99.90;;;;;;5050782;28;20243;-92
2023/01/12 13:40:31;;;;;;;1.10;1.00;;;11.00;99.90;;;;;;5052411;28;20198;-94
2023/01/12 13:43:14;;;;;;;2.23;1.30;;;10.90;99.90;;;;;;5041525;28;20592;-92
2023/01/12 13:45:59;;;;;;;3.80;1.50;;;11.00;99.90;;;;;;5051724;28;20206;-92
2023/01/12 13:48:31;;;;;;;3.17;1.10;;;10.90;99.90;;;;;;5052829;28;20679;-94
2023/01/12 13:51:06;;;;;;;3.37;1.40;;;10.90;99.90;;;;;;5049728;28;20298;-92
2023/01/12 13:53:33;;;;;;;1.30;1.10;;;11.00;99.90;;;;;;5048046;28;20222;-92
2023/01/12 13:56:03;;;;;;;3.20;1.50;;;11.00;99.90;;;;;;5070680;28;20240;-94
2023/01/12 13:58:41;;;;;;;2.47;1.03;;;11.00;99.90;;;;;;5069861;28;20291;-93
2023/01/12 14:01:17;;;;;;;2.27;1.27;;;11.00;99.90;;;;;;5067877;28;20269;-92
2023/01/12 14:04:21;;;;;;;1.43;1.00;;;10.90;99.90;;;;;;5056686;28;20518;-92
2023/01/12 14:07:00;;;;;;;3.23;1.20;;;10.90;99.90;;;;;;5047089;28;20207;-88
2023/01/12 14:09:42;;;;;;;1.80;1.40;;;10.90;99.90;;;;;;5045856;28;20246;-91
2023/01/12 14:13:04;;;;;;;1.80;1.20;;;10.80;99.90;;;;;;5042068;28;20221;-90
2023/01/12 14:18:24;;;;;;;6.97;1.53;;;10.90;99.90;;;;;;5047872;28;20214;-91
2023/01/12 14:20:56;;;;;;;3.83;1.20;;;10.90;99.90;;;;;;5047541;28;20217;-91
2023/01/12 14:23:30;;;;;;;2.50;1.50;;;10.90;99.90;;;;;;5056958;28;20234;-93
2023/01/12 14:26:13;;;;;;;2.43;1.50;;;10.90;99.90;;;;;;5057805;28;20203;-93
2023/01/12 14:28:42;;;;;;;5.77;1.90;;;10.90;99.90;;;;;;5045662;28;20222;-91
2023/01/12 14:31:25;;;;;;;3.43;1.93;;;10.90;99.90;;;;;;5057496;28;20282;-91
2023/01/12 14:34:23;;;;;;;3.20;1.03;;;10.90;99.90;;;;;;5056521;28;20243;-92
2023/01/12 14:36:51;;;;;;;4.63;1.47;;;10.90;99.90;;;;;;5056982;28;20209;-90
2023/01/12 14:39:22;;;;;;;3.60;1.43;;;11.00;99.90;;;;;;5043401;28;20238;-88
2023/01/12 14:47:37;;;;;;;4.57;1.73;;;11.00;99.90;;;;;;5055911;28;20233;-90
2023/01/12 14:50:21;;;;;;;4.90;3.23;;;11.00;99.90;;;;;;5056033;28;20243;-93
2023/01/12 14:52:49;;;;;;;6.03;1.67;;;11.00;99.90;;;;;;5039628;28;20231;-92
2023/01/12 14:55:18;;;;;;;3.90;1.30;;;11.00;99.90;;;;;;5049661;28;20608;-94
2023/01/12 14:57:50;;;;;;;5.00;1.40;;;11.00;99.90;;;;;;5050945;28;20207;-90